createdAt,value
2018-07-22T00:03:32.279Z,22.10
2018-07-22T00:06:00.843Z,22.03
2018-07-22T00:08:29.355Z,21.07
2018-07-22T00:10:57.944Z,19.70
2018-07-22T00:13:26.516Z,21.27
2018-07-22T00:15:55.256Z,21.03
2018-07-22T00:18:23.751Z,20.82
2018-07-22T00:20:52.312Z,19.80
2018-07-22T00:23:20.881Z,19.37
2018-07-22T00:25:49.411Z,19.40
2018-07-22T00:28:18.579Z,18.98
2018-07-22T00:30:47.136Z,19.80
2018-07-22T00:33:15.730Z,19.23
2018-07-22T00:35:44.231Z,19.57
2018-07-22T00:38:12.787Z,21.30
2018-07-22T00:40:41.258Z,18.77
2018-07-22T00:43:09.779Z,20.93
2018-07-22T00:45:38.273Z,19.13
2018-07-22T00:48:06.833Z,17.67
2018-07-22T00:50:35.364Z,17.60
2018-07-22T00:53:03.944Z,19.93
2018-07-22T00:55:32.379Z,17.93
2018-07-22T00:58:01.062Z,18.10
2018-07-22T01:00:29.590Z,16.90
2018-07-22T01:02:58.157Z,17.57
2018-07-22T01:05:26.781Z,17.77
2018-07-22T01:07:55.323Z,16.73
2018-07-22T01:10:23.889Z,17.37
2018-07-22T01:12:52.496Z,17.33
2018-07-22T01:15:21.189Z,16.77
2018-07-22T01:17:49.654Z,18.80
2018-07-22T01:20:18.164Z,19.00
2018-07-22T01:22:46.628Z,21.50
2018-07-22T01:25:15.131Z,21.20
2018-07-22T01:27:44.393Z,23.40
2018-07-22T01:30:12.913Z,23.53
2018-07-22T01:32:41.398Z,23.30
2018-07-22T01:35:09.869Z,24.70
2018-07-22T01:37:45.073Z,25.03
2018-07-22T01:40:13.689Z,25.60
2018-07-22T01:42:42.155Z,25.60
2018-07-22T01:45:10.746Z,26.57
2018-07-22T01:47:39.470Z,27.30
2018-07-22T01:50:08.115Z,25.43
2018-07-22T01:52:36.826Z,26.20
2018-07-22T01:55:08.326Z,26.63
2018-07-22T01:57:36.972Z,26.07
2018-07-22T02:00:05.446Z,27.03
2018-07-22T02:02:33.922Z,26.37
2018-07-22T02:05:02.435Z,27.70
2018-07-22T02:07:30.957Z,26.60
2018-07-22T02:09:59.504Z,27.30
2018-07-22T02:12:27.991Z,25.80
2018-07-22T02:14:56.498Z,25.73
2018-07-22T02:17:25.014Z,26.63
2018-07-22T02:19:53.579Z,28.63
2018-07-22T02:22:22.141Z,26.75
2018-07-22T02:24:51.511Z,27.52
2018-07-22T02:27:20.004Z,29.30
2018-07-22T02:29:49.462Z,30.25
2018-07-22T02:32:18.071Z,30.50
2018-07-22T02:34:46.592Z,32.13
2018-07-22T02:37:15.166Z,29.70
2018-07-22T02:39:43.681Z,30.10
2018-07-22T02:42:12.224Z,29.30
2018-07-22T02:44:40.962Z,29.10
2018-07-22T02:47:09.536Z,26.83
2018-07-22T02:49:38.073Z,28.37
2018-07-22T02:52:06.717Z,30.10
2018-07-22T02:54:35.189Z,30.13
2018-07-22T02:57:03.700Z,28.73
2018-07-22T02:59:32.311Z,29.20
2018-07-22T03:02:00.848Z,29.87
2018-07-22T03:04:29.329Z,30.30
2018-07-22T03:06:57.967Z,28.50
2018-07-22T03:09:26.449Z,30.35
2018-07-22T03:11:54.995Z,30.37
2018-07-22T03:14:23.522Z,27.98
2018-07-22T03:16:52.015Z,26.00
2018-07-22T03:19:20.622Z,26.17
2018-07-22T03:21:49.139Z,25.52
2018-07-22T03:24:17.575Z,26.90
2018-07-22T03:26:46.165Z,27.83
2018-07-22T03:29:14.680Z,27.82
2018-07-22T03:31:43.142Z,26.80
2018-07-22T03:34:11.592Z,24.83
2018-07-22T03:36:40.198Z,24.10
2018-07-22T03:39:10.076Z,26.20
2018-07-22T03:41:38.902Z,26.35
2018-07-22T03:44:07.695Z,27.63
2018-07-22T03:46:36.406Z,26.80
2018-07-22T03:49:04.980Z,28.42
2018-07-22T03:51:33.459Z,27.27
2018-07-22T03:54:02.134Z,28.20
2018-07-22T03:56:30.636Z,27.47
2018-07-22T03:58:59.247Z,26.50
2018-07-22T04:01:27.827Z,26.07
2018-07-22T04:03:56.347Z,28.23
2018-07-22T04:06:24.840Z,27.27
2018-07-22T04:08:53.334Z,27.63
2018-07-22T04:11:21.812Z,27.97
2018-07-22T04:13:50.326Z,27.70
2018-07-22T04:16:18.839Z,27.97
2018-07-22T04:18:52.442Z,27.27
2018-07-22T04:21:22.375Z,28.40
2018-07-22T04:23:51.223Z,28.53
2018-07-22T04:26:20.551Z,28.10
2018-07-22T04:28:49.332Z,28.38
2018-07-22T04:31:17.848Z,28.63
2018-07-22T04:33:46.369Z,27.47
2018-07-22T04:36:14.864Z,28.37
2018-07-22T04:38:43.378Z,28.70
2018-07-22T04:41:11.858Z,29.83
2018-07-22T04:43:40.456Z,28.62
2018-07-22T04:46:08.994Z,28.67
2018-07-22T04:48:37.450Z,28.87
2018-07-22T04:51:06.300Z,28.03
2018-07-22T04:53:34.876Z,26.50
2018-07-22T04:56:03.751Z,26.57
2018-07-22T04:58:32.283Z,26.17
2018-07-22T05:01:00.824Z,24.40
2018-07-22T05:03:29.296Z,25.97
2018-07-22T05:05:57.791Z,25.17
2018-07-22T05:08:26.268Z,25.57
2018-07-22T05:10:54.755Z,25.08
2018-07-22T05:13:23.955Z,27.00
2018-07-22T05:15:52.552Z,27.17
2018-07-22T05:18:21.032Z,26.07
2018-07-22T05:20:49.519Z,25.67
2018-07-22T05:23:18.022Z,25.87
2018-07-22T05:25:46.569Z,24.67
2018-07-22T05:28:15.060Z,24.03
2018-07-22T05:30:43.574Z,27.17
2018-07-22T05:33:12.123Z,23.83
2018-07-22T05:35:40.673Z,22.23
2018-07-22T05:38:09.150Z,22.60
2018-07-22T05:40:37.723Z,21.30
2018-07-22T05:43:06.375Z,22.67
2018-07-22T05:45:34.837Z,20.80
2018-07-22T05:48:03.285Z,22.00
2018-07-22T05:50:31.889Z,20.80
2018-07-22T05:53:00.364Z,21.30
2018-07-22T05:55:28.874Z,20.97
2018-07-22T05:57:57.393Z,21.97
2018-07-22T06:00:32.319Z,21.50
2018-07-22T06:03:01.423Z,21.70
2018-07-22T06:05:29.887Z,23.22
2018-07-22T06:07:58.452Z,22.13
2018-07-22T06:10:27.199Z,23.53
2018-07-22T06:12:55.757Z,27.30
2018-07-22T06:15:24.310Z,24.87
2018-07-22T06:17:52.811Z,25.17
2018-07-22T06:20:21.333Z,26.00
2018-07-22T06:22:49.846Z,25.87
2018-07-22T06:25:18.314Z,25.70
2018-07-22T06:27:46.905Z,25.00
2018-07-22T06:30:15.503Z,24.27
2018-07-22T06:32:44.069Z,28.52
2018-07-22T06:35:12.772Z,25.40
2018-07-22T06:37:41.427Z,26.50
2018-07-22T06:40:09.961Z,25.00
2018-07-22T06:42:38.756Z,25.37
2018-07-22T06:45:07.377Z,25.23
2018-07-22T06:47:35.920Z,22.82
2018-07-22T06:50:04.831Z,24.57
2018-07-22T06:52:33.383Z,20.17
2018-07-22T06:55:01.856Z,22.70
2018-07-22T06:57:30.326Z,21.20
2018-07-22T06:59:58.827Z,20.08
2018-07-22T07:02:27.298Z,23.40
2018-07-22T07:05:00.327Z,22.25
2018-07-22T07:07:28.760Z,21.68
2018-07-22T07:09:57.308Z,20.30
2018-07-22T07:12:26.754Z,22.25
2018-07-22T07:14:55.272Z,21.87
2018-07-22T07:17:25.850Z,23.18
2018-07-22T07:19:54.471Z,24.33
2018-07-22T07:22:23.043Z,24.10
2018-07-22T07:24:51.757Z,20.77
2018-07-22T07:27:20.230Z,23.95
2018-07-22T07:29:48.731Z,23.70
2018-07-22T07:32:17.199Z,21.53
2018-07-22T07:34:45.728Z,20.90
2018-07-22T07:37:14.812Z,23.27
2018-07-22T07:39:43.267Z,23.47
2018-07-22T07:42:11.823Z,20.40
2018-07-22T07:44:40.308Z,18.47
2018-07-22T07:47:08.955Z,17.25
2018-07-22T07:49:42.203Z,18.13
2018-07-22T07:52:12.871Z,17.85
2018-07-22T07:54:41.488Z,20.75
2018-07-22T07:57:14.789Z,21.20
2018-07-22T07:59:46.191Z,23.50
2018-07-22T08:02:14.710Z,24.43
2018-07-22T08:04:43.181Z,17.70
2018-07-22T08:07:11.779Z,18.80
2018-07-22T08:09:40.378Z,17.27
2018-07-22T08:12:08.854Z,15.70
2018-07-22T08:14:37.350Z,16.87
2018-07-22T08:17:06.115Z,16.90
2018-07-22T08:19:34.669Z,17.93
2018-07-22T08:22:03.282Z,17.60
2018-07-22T08:24:31.782Z,16.40
2018-07-22T08:27:00.475Z,16.07
2018-07-22T08:29:31.067Z,14.90
2018-07-22T08:32:00.090Z,12.80
2018-07-22T08:34:28.809Z,14.90
2018-07-22T08:36:57.349Z,15.58
2018-07-22T08:39:28.177Z,14.47
2018-07-22T08:42:00.446Z,15.10
2018-07-22T08:44:29.105Z,13.33
2018-07-22T08:46:59.296Z,13.03
2018-07-22T08:49:31.933Z,12.43
2018-07-22T08:52:09.392Z,12.90
2018-07-22T08:54:43.646Z,11.60
2018-07-22T08:57:12.308Z,10.80
2018-07-22T08:59:40.936Z,11.65
2018-07-22T09:02:09.137Z,12.17
2018-07-22T09:04:38.254Z,11.57
2018-07-22T09:07:10.166Z,9.95
2018-07-22T09:09:38.775Z,10.87
2018-07-22T09:12:07.375Z,11.00
2018-07-22T09:14:37.272Z,10.55
2018-07-22T09:17:07.710Z,11.37
2018-07-22T09:19:36.394Z,10.80
2018-07-22T09:22:05.027Z,10.20
2018-07-22T09:24:37.265Z,9.80
2018-07-22T09:27:15.860Z,10.43
2018-07-22T09:29:44.402Z,9.58
2018-07-22T09:32:12.948Z,9.53
2018-07-22T09:34:41.454Z,9.93
2018-07-22T09:37:10.034Z,9.60
2018-07-22T09:39:38.622Z,8.77
2018-07-22T09:42:07.247Z,8.80
2018-07-22T09:44:35.471Z,8.55
2018-07-22T09:47:04.081Z,8.60
2018-07-22T09:49:39.137Z,8.70
2018-07-22T09:52:08.642Z,8.30
2018-07-22T09:54:37.178Z,8.30
2018-07-22T09:57:05.766Z,8.98
2018-07-22T09:59:34.328Z,8.17
2018-07-22T10:02:03.322Z,8.90
2018-07-22T10:04:31.919Z,8.00
2018-07-22T10:07:00.419Z,8.73
2018-07-22T10:09:29.824Z,7.77
2018-07-22T10:11:58.390Z,8.27
2018-07-22T10:14:29.269Z,8.73
2018-07-22T10:17:01.934Z,8.33
2018-07-22T10:19:30.935Z,8.30
2018-07-22T10:21:59.528Z,7.90
2018-07-22T10:24:28.108Z,7.53
2018-07-22T10:26:56.296Z,7.33
2018-07-22T10:29:24.856Z,7.37
2018-07-22T10:31:54.027Z,7.93
2018-07-22T10:34:23.676Z,6.80
2018-07-22T10:36:53.105Z,7.70
2018-07-22T10:39:21.668Z,7.13
2018-07-22T10:41:50.259Z,6.80
2018-07-22T10:44:18.988Z,7.22
2018-07-22T10:46:47.547Z,7.10
2018-07-22T10:49:16.091Z,7.03
2018-07-22T10:51:44.668Z,7.65
2018-07-22T10:54:13.260Z,7.33
2018-07-22T10:56:41.867Z,7.10
2018-07-22T10:59:10.661Z,6.80
2018-07-22T11:01:42.452Z,7.10
2018-07-22T11:04:10.933Z,6.80
2018-07-22T11:06:39.452Z,7.00
2018-07-22T11:09:09.216Z,7.30
2018-07-22T11:11:37.970Z,7.07
2018-07-22T11:14:06.592Z,7.30
2018-07-22T11:16:35.047Z,7.70
2018-07-22T11:19:03.560Z,7.00
2018-07-22T11:21:32.088Z,7.40
2018-07-22T11:24:00.740Z,6.90
2018-07-22T11:26:29.279Z,7.70
2018-07-22T11:28:57.784Z,7.17
2018-07-22T11:31:26.565Z,7.50
2018-07-22T11:33:55.057Z,7.40
2018-07-22T11:36:23.644Z,7.50
2018-07-22T11:38:52.159Z,6.67
2018-07-22T11:41:20.691Z,7.30
2018-07-22T11:43:49.185Z,7.27
2018-07-22T11:46:17.700Z,7.20
2018-07-22T11:48:46.239Z,6.70
2018-07-22T11:51:14.760Z,6.70
2018-07-22T11:53:43.721Z,7.10
2018-07-22T11:56:12.250Z,7.27
2018-07-22T11:58:41.780Z,7.00
2018-07-22T12:01:10.293Z,6.73
2018-07-22T12:03:38.812Z,7.20
2018-07-22T12:06:07.301Z,6.47
2018-07-22T12:08:35.508Z,6.50
2018-07-22T12:11:04.004Z,7.03
2018-07-22T12:13:32.505Z,7.07
2018-07-22T12:16:01.129Z,6.70
2018-07-22T12:18:29.667Z,7.07
2018-07-22T12:20:58.271Z,6.00
2018-07-22T12:23:26.854Z,6.63
2018-07-22T12:25:55.467Z,6.30
2018-07-22T12:28:24.065Z,5.70
2018-07-22T12:30:52.863Z,6.10
2018-07-22T12:33:27.899Z,5.90
2018-07-22T12:35:56.598Z,5.70
2018-07-22T12:38:25.088Z,5.87
2018-07-22T12:40:53.671Z,5.72
2018-07-22T12:43:24.646Z,6.08
2018-07-22T12:45:53.136Z,5.83
2018-07-22T12:48:21.968Z,6.70
2018-07-22T12:50:50.553Z,6.60
2018-07-22T12:53:19.127Z,6.90
2018-07-22T12:55:47.585Z,6.87
2018-07-22T12:58:16.116Z,6.47
2018-07-22T13:00:44.779Z,6.03
2018-07-22T13:03:18.884Z,6.83
2018-07-22T13:05:47.488Z,6.67
2018-07-22T13:08:16.344Z,6.80
2018-07-22T13:10:44.954Z,7.30
2018-07-22T13:13:13.811Z,7.53
2018-07-22T13:15:42.278Z,6.60
2018-07-22T13:18:10.873Z,6.72
2018-07-22T13:20:39.349Z,6.50
2018-07-22T13:23:08.619Z,6.33
2018-07-22T13:25:37.152Z,6.90
2018-07-22T13:28:05.835Z,6.60
2018-07-22T13:30:34.416Z,6.33
2018-07-22T13:33:02.949Z,6.37
2018-07-22T13:35:31.463Z,6.20
2018-07-22T13:38:00.185Z,6.33
2018-07-22T13:40:28.710Z,7.37
2018-07-22T13:42:57.245Z,6.83
2018-07-22T13:45:25.959Z,7.23
2018-07-22T13:47:54.439Z,7.20
2018-07-22T13:50:22.948Z,8.53
2018-07-22T13:52:51.379Z,8.20
2018-07-22T13:55:20.827Z,7.78
2018-07-22T13:57:49.311Z,7.90
2018-07-22T14:00:17.914Z,8.60
2018-07-22T14:02:46.399Z,9.20
2018-07-22T14:05:14.686Z,9.73
2018-07-22T14:07:43.235Z,10.07
2018-07-22T14:10:11.804Z,10.70
2018-07-22T14:12:40.283Z,9.90
2018-07-22T14:15:08.955Z,9.73
2018-07-22T14:17:37.523Z,9.87
2018-07-22T14:20:06.264Z,9.87
2018-07-22T14:22:34.739Z,9.87
2018-07-22T14:25:03.347Z,9.53
2018-07-22T14:27:31.988Z,9.33
2018-07-22T14:30:00.476Z,8.97
2018-07-22T14:32:29.865Z,8.53
2018-07-22T14:34:58.469Z,7.40
2018-07-22T14:37:27.043Z,8.10
2018-07-22T14:39:55.653Z,8.48
2018-07-22T14:42:24.351Z,8.30
2018-07-22T14:44:52.532Z,8.40
2018-07-22T14:47:21.046Z,8.13
2018-07-22T14:53:34.974Z,7.50
2018-07-22T14:56:03.447Z,8.00
2018-07-22T14:58:32.079Z,7.90
2018-07-22T15:01:00.578Z,7.83
2018-07-22T15:03:29.823Z,7.90
2018-07-22T15:05:58.387Z,7.73
2018-07-22T15:08:26.995Z,7.77
2018-07-22T15:11:02.247Z,7.30
2018-07-22T15:13:30.830Z,7.60
2018-07-22T15:15:59.330Z,7.73
2018-07-22T15:18:27.844Z,7.00
2018-07-22T15:20:56.467Z,8.13
2018-07-22T15:23:25.012Z,7.10
2018-07-22T15:25:53.474Z,8.30
2018-07-22T15:28:21.928Z,7.60
2018-07-22T15:30:50.589Z,8.27
2018-07-22T15:33:19.063Z,7.30
2018-07-22T15:35:47.580Z,8.60
2018-07-22T15:38:16.166Z,7.87
2018-07-22T15:40:44.670Z,8.47
2018-07-22T15:43:13.250Z,8.83
2018-07-22T15:45:41.808Z,9.95
2018-07-22T15:48:10.504Z,10.07
2018-07-22T15:50:39.022Z,9.40
2018-07-22T15:53:07.644Z,10.53
2018-07-22T15:55:36.347Z,10.17
2018-07-22T15:58:05.660Z,10.60
2018-07-22T16:00:34.239Z,10.93
2018-07-22T16:03:02.738Z,10.50
2018-07-22T16:05:31.413Z,10.37
2018-07-22T16:08:00.027Z,12.20
2018-07-22T16:10:28.587Z,11.23
2018-07-22T16:12:57.131Z,10.97
2018-07-22T16:15:25.711Z,10.37
2018-07-22T16:17:54.282Z,10.90
2018-07-22T16:20:24.358Z,10.70
2018-07-22T16:22:52.915Z,10.70
2018-07-22T16:25:21.500Z,10.20
2018-07-22T16:27:50.006Z,10.67
2018-07-22T16:30:18.779Z,9.90
2018-07-22T16:32:47.429Z,9.43
2018-07-22T16:35:15.987Z,9.63
2018-07-22T16:37:44.503Z,9.37
2018-07-22T16:40:13.047Z,10.00
2018-07-22T16:42:41.704Z,9.53
2018-07-22T16:45:10.380Z,9.10
2018-07-22T16:47:39.090Z,9.37
2018-07-22T16:50:07.676Z,9.73
2018-07-22T16:52:36.219Z,10.30
2018-07-22T16:55:04.864Z,10.80
2018-07-22T16:57:34.120Z,9.65
2018-07-22T17:00:02.850Z,11.03
2018-07-22T17:02:31.356Z,10.90
2018-07-22T17:05:00.704Z,10.75
2018-07-22T17:07:30.367Z,10.57
2018-07-22T17:09:59.770Z,10.30
2018-07-22T17:12:28.321Z,10.57
2018-07-22T17:14:57.140Z,10.30
2018-07-22T17:17:25.762Z,10.27
2018-07-22T17:19:54.280Z,9.60
2018-07-22T17:22:23.497Z,10.18
2018-07-22T17:24:51.983Z,10.23
2018-07-22T17:27:21.458Z,10.70
2018-07-22T17:29:49.967Z,10.20
2018-07-22T17:32:18.496Z,11.00
2018-07-22T17:34:46.971Z,10.60
2018-07-22T17:37:15.571Z,10.97
2018-07-22T17:39:44.465Z,11.73
2018-07-22T17:42:13.239Z,11.10
2018-07-22T17:44:41.817Z,11.17
2018-07-22T17:47:10.293Z,10.90
2018-07-22T17:49:38.881Z,11.48
2018-07-22T17:52:07.447Z,10.53
2018-07-22T17:54:40.148Z,11.53
2018-07-22T17:57:08.780Z,10.47
2018-07-22T17:59:37.360Z,11.18
2018-07-22T18:02:05.954Z,10.65
2018-07-22T18:04:34.548Z,12.13
2018-07-22T18:07:03.241Z,10.20
2018-07-22T18:09:32.048Z,11.20
2018-07-22T18:12:00.830Z,12.07
2018-07-22T18:14:29.355Z,11.87
2018-07-22T18:16:57.846Z,12.73
2018-07-22T18:19:26.376Z,13.03
2018-07-22T18:21:55.060Z,13.50
2018-07-22T18:24:23.593Z,12.43
2018-07-22T18:26:52.135Z,12.47
2018-07-22T18:29:20.796Z,12.07
2018-07-22T18:31:49.663Z,14.00
2018-07-22T18:34:19.867Z,13.50
2018-07-22T18:36:48.393Z,13.70
2018-07-22T18:39:16.968Z,13.87
2018-07-22T18:41:45.754Z,12.83
2018-07-22T18:44:14.318Z,13.40
2018-07-22T18:46:43.150Z,15.10
2018-07-22T18:49:12.147Z,14.27
2018-07-22T18:51:40.761Z,14.10
2018-07-22T18:54:09.560Z,13.53
2018-07-22T18:56:38.438Z,14.10
2018-07-22T18:59:07.257Z,14.67
2018-07-22T19:01:36.092Z,14.33
2018-07-22T19:04:04.915Z,14.85
2018-07-22T19:06:33.701Z,14.60
2018-07-22T19:09:02.712Z,14.83
2018-07-22T19:11:31.542Z,15.13
2018-07-22T19:14:02.742Z,14.80
2018-07-22T19:16:31.593Z,15.10
2018-07-22T19:19:00.377Z,15.97
2018-07-22T19:21:29.952Z,14.90
2018-07-22T19:24:04.767Z,15.07
2018-07-22T19:26:35.244Z,16.20
2018-07-22T19:29:06.840Z,15.63
2018-07-22T19:31:51.569Z,14.97
2018-07-22T19:34:33.774Z,16.02
2018-07-22T19:37:06.888Z,16.20
2018-07-22T19:40:03.662Z,16.03
2018-07-22T19:42:46.162Z,15.95
2018-07-22T19:45:43.472Z,17.10
2018-07-22T19:51:07.078Z,16.40
2018-07-22T19:53:45.217Z,16.87
2018-07-22T19:56:18.587Z,17.03
2018-07-22T19:58:48.642Z,16.97
2018-07-22T20:01:21.385Z,17.48
2018-07-22T20:03:50.605Z,17.77
2018-07-22T20:06:19.470Z,17.10
2018-07-22T20:08:48.344Z,16.73
2018-07-22T20:11:17.166Z,16.37
2018-07-22T20:13:45.992Z,17.47
2018-07-22T20:16:14.826Z,17.50
2018-07-22T20:18:43.726Z,17.12
2018-07-22T20:21:12.599Z,16.37
2018-07-22T20:23:41.456Z,17.23
2018-07-22T20:26:10.325Z,17.30
2018-07-22T20:28:38.947Z,16.75
2018-07-22T20:31:07.787Z,15.73
2018-07-22T20:33:36.403Z,17.70
2018-07-22T20:36:05.388Z,15.57
2018-07-22T20:38:36.076Z,16.17
2018-07-22T20:41:05.611Z,16.80
2018-07-22T20:43:34.547Z,16.63
2018-07-22T20:46:03.189Z,17.83
2018-07-22T20:48:31.755Z,16.97
2018-07-22T20:51:00.862Z,14.70
2018-07-22T20:53:32.253Z,15.80
2018-07-22T20:56:01.231Z,16.12
2018-07-22T20:58:35.045Z,16.47
2018-07-22T21:01:07.685Z,15.83
2018-07-22T21:03:42.718Z,16.70
2018-07-22T21:06:11.408Z,17.17
2018-07-22T21:08:43.190Z,17.07
2018-07-22T21:13:54.533Z,17.75
2018-07-22T21:16:24.121Z,15.90
2018-07-22T21:19:03.986Z,16.35
2018-07-22T21:21:32.688Z,16.60
2018-07-22T21:24:02.278Z,16.23
2018-07-22T21:26:30.807Z,17.12
2018-07-22T21:28:59.371Z,16.20
2018-07-22T21:31:28.682Z,18.00
2018-07-22T21:33:57.370Z,18.53
2018-07-22T21:36:25.587Z,17.90
2018-07-22T21:38:54.055Z,19.17
2018-07-22T21:41:22.578Z,19.20
2018-07-22T21:43:51.326Z,17.90
2018-07-22T21:46:19.943Z,18.03
2018-07-22T21:48:48.459Z,17.30
2018-07-22T21:51:17.012Z,18.50
2018-07-22T21:53:45.673Z,18.30
2018-07-22T21:56:14.138Z,18.40
2018-07-22T21:58:43.962Z,18.30
2018-07-22T22:01:13.056Z,18.13
2018-07-22T22:03:41.595Z,18.07
2018-07-22T22:06:10.655Z,18.48
2018-07-22T22:08:39.152Z,18.53
2018-07-22T22:11:07.746Z,19.70
2018-07-22T22:13:36.260Z,18.63
2018-07-22T22:16:06.208Z,20.60
2018-07-22T22:18:34.771Z,19.20
2018-07-22T22:21:02.967Z,19.27
2018-07-22T22:23:31.741Z,19.13
2018-07-22T22:26:00.223Z,19.70
2018-07-22T22:28:28.762Z,20.07
2018-07-22T22:30:57.323Z,19.53
2018-07-22T22:33:25.810Z,18.60
2018-07-22T22:35:54.579Z,21.80
2018-07-22T22:38:23.126Z,19.00
2018-07-22T22:40:51.556Z,19.57
2018-07-22T22:43:20.126Z,19.67
2018-07-22T22:45:48.631Z,18.75
2018-07-22T22:48:17.186Z,18.23
2018-07-22T22:50:46.068Z,19.37
2018-07-22T22:53:14.644Z,18.90
2018-07-22T22:55:43.231Z,19.70
2018-07-22T22:58:24.471Z,19.70
2018-07-22T23:00:52.996Z,18.70
2018-07-22T23:03:21.655Z,19.20
2018-07-22T23:05:50.202Z,20.27
2018-07-22T23:08:18.898Z,19.20
2018-07-22T23:10:47.361Z,18.53
2018-07-22T23:13:20.717Z,17.60
2018-07-22T23:15:49.178Z,17.80
2018-07-22T23:18:17.792Z,18.40
2018-07-22T23:20:46.288Z,20.77
2018-07-22T23:23:14.778Z,20.33
2018-07-22T23:25:43.326Z,18.90
2018-07-22T23:28:11.898Z,19.62
2018-07-22T23:30:40.560Z,20.87
2018-07-22T23:33:09.084Z,18.63
2018-07-22T23:35:37.669Z,19.83
2018-07-22T23:38:06.414Z,18.70
2018-07-22T23:40:34.967Z,20.20
2018-07-22T23:43:03.477Z,20.70
2018-07-22T23:45:31.971Z,21.70
2018-07-22T23:48:00.563Z,21.53
2018-07-22T23:50:29.062Z,21.07
2018-07-22T23:52:57.760Z,21.17
2018-07-22T23:55:26.348Z,22.00
2018-07-22T23:57:54.800Z,22.53
